aviador You're here:

KGAG Decoded Metar

GAGE in OK, USA
Report Time2017-10-17 19:53:00
UTC Time2017-10-17 20:16:39
Flight Rules vfr VFR
Wind190° at 19 Gusting to 24 kt
W.Decomp.*RWY 17: 18.6 kt HW 4.0 kt RCW
W.Rank190° ranks 3
Current wind is above 190° avg. (14.2)
Visibility9999 m
Phenomena:N/A
Clouds:N/A
Expected CloudBase > 8,800 ft AGL from Temp-Dew spread
CeilingNone
Temp26°C (ISA +15)
Dew Point04°C (24% RH)
AAT17.8°C
QNH1019 hPa
Density Alt3,871 ft
Elevation2,192 ft
Report Wrong Elevation
Raw Report
KGAG 171953Z AUTO 19019G24KT 10SM CLR 26/04 A3008 RMK AO2 SLP172
T02560044=

Extra information for KGAG:More info

Metar Taf Metar & Taf Last 4 Metars F.Rules Stats Wind Profile Meteogram Temp Stats Airport Information Weather charts Add Link Nearby VenuesMetar ALERT Operation Metar Decoded Social comments

AIRNAV info for KGAG